createdAt,value
2019-03-24T00:00:47.632Z,3.70
2019-03-24T00:03:53.651Z,4.00
2019-03-24T00:06:57.356Z,3.80
2019-03-24T00:10:01.091Z,4.40
2019-03-24T00:13:04.910Z,3.57
2019-03-24T00:16:08.620Z,4.50
2019-03-24T00:19:12.989Z,3.30
2019-03-24T00:22:17.132Z,4.77
2019-03-24T00:25:20.858Z,4.60
2019-03-24T00:28:24.884Z,4.60
2019-03-24T00:31:29.205Z,5.10
2019-03-24T00:34:33.673Z,5.73
2019-03-24T00:37:37.388Z,5.17
2019-03-24T00:40:41.645Z,3.90
2019-03-24T00:43:47.262Z,5.67
2019-03-24T00:46:51.340Z,4.70
2019-03-24T00:49:55.742Z,4.90
2019-03-24T00:52:59.446Z,4.60
2019-03-24T00:56:03.597Z,4.43
2019-03-24T00:59:07.727Z,5.10
2019-03-24T01:02:11.428Z,5.90
2019-03-24T01:05:15.176Z,4.20
2019-03-24T01:08:20.838Z,4.17
2019-03-24T01:11:24.591Z,5.70
2019-03-24T01:14:29.160Z,4.93
2019-03-24T01:17:33.188Z,6.33
2019-03-24T01:20:36.906Z,5.90
2019-03-24T01:23:40.637Z,6.30
2019-03-24T01:26:44.747Z,6.23
2019-03-24T01:29:48.825Z,5.63
2019-03-24T01:32:53.541Z,6.17
2019-03-24T01:35:58.079Z,5.90
2019-03-24T01:39:02.175Z,6.20
2019-03-24T01:42:07.492Z,4.00
2019-03-24T01:45:11.388Z,5.70
2019-03-24T01:48:15.870Z,5.60
2019-03-24T01:51:19.594Z,5.13
2019-03-24T01:54:24.082Z,4.53
2019-03-24T01:57:28.097Z,6.30
2019-03-24T02:00:31.836Z,4.90
2019-03-24T02:03:35.962Z,4.83
2019-03-24T02:06:39.826Z,6.20
2019-03-24T02:09:44.589Z,4.57
2019-03-24T02:12:48.998Z,5.53
2019-03-24T02:15:52.739Z,6.50
2019-03-24T02:18:56.453Z,6.50
2019-03-24T02:22:01.482Z,5.00
2019-03-24T02:25:06.426Z,4.57
2019-03-24T02:28:11.560Z,5.13
2019-03-24T02:31:15.628Z,4.83
2019-03-24T02:34:19.781Z,3.90
2019-03-24T02:37:23.899Z,4.40
2019-03-24T02:40:27.994Z,5.60
2019-03-24T02:43:31.724Z,5.33
2019-03-24T02:46:35.452Z,4.53
2019-03-24T02:49:39.161Z,4.90
2019-03-24T02:52:43.252Z,3.80
2019-03-24T02:55:47.324Z,5.40
2019-03-24T02:58:51.846Z,4.70
2019-03-24T03:01:57.277Z,3.30
2019-03-24T03:05:01.360Z,5.27
2019-03-24T03:08:05.313Z,3.70
2019-03-24T03:11:09.330Z,3.90
2019-03-24T03:14:13.526Z,4.50
2019-03-24T03:17:17.623Z,4.93
2019-03-24T03:20:21.699Z,3.17
2019-03-24T03:23:25.791Z,3.73
2019-03-24T03:26:29.502Z,4.57
2019-03-24T03:29:35.545Z,3.23
2019-03-24T03:32:39.261Z,4.00
2019-03-24T03:35:42.994Z,2.70
2019-03-24T03:38:47.133Z,4.10
2019-03-24T03:41:50.833Z,3.77
2019-03-24T03:44:54.562Z,2.60
2019-03-24T03:47:58.312Z,3.20
2019-03-24T03:51:02.029Z,2.93
2019-03-24T03:54:05.752Z,3.53
2019-03-24T03:57:12.324Z,3.60
2019-03-24T04:00:20.025Z,2.90
2019-03-24T04:03:24.168Z,3.03
2019-03-24T04:06:28.207Z,2.53
2019-03-24T04:09:32.219Z,3.60
2019-03-24T04:12:35.949Z,3.07
2019-03-24T04:15:40.177Z,2.60
2019-03-24T04:18:44.652Z,2.70
2019-03-24T04:21:48.349Z,2.30
2019-03-24T04:24:52.072Z,2.60
2019-03-24T04:27:55.844Z,2.80
2019-03-24T04:30:59.964Z,3.23
2019-03-24T04:34:04.949Z,2.43
2019-03-24T04:37:08.674Z,2.77
2019-03-24T04:40:13.369Z,2.40
2019-03-24T04:43:17.570Z,2.60
2019-03-24T04:46:21.659Z,2.30
2019-03-24T04:49:25.378Z,3.00
2019-03-24T04:52:29.485Z,3.90
2019-03-24T04:55:34.819Z,3.83
2019-03-24T04:58:38.631Z,1.90
2019-03-24T05:01:42.724Z,2.30
2019-03-24T05:04:46.869Z,1.80
2019-03-24T05:07:50.791Z,2.47
2019-03-24T05:10:55.809Z,2.70
2019-03-24T05:13:59.512Z,4.53
2019-03-24T05:17:04.211Z,2.63
2019-03-24T05:20:08.580Z,3.80
2019-03-24T05:23:12.661Z,2.83
2019-03-24T05:26:16.388Z,2.27
2019-03-24T05:29:20.089Z,2.60
2019-03-24T05:32:25.263Z,2.70
2019-03-24T05:35:29.345Z,4.53
2019-03-24T05:38:33.071Z,2.10
2019-03-24T05:41:37.150Z,2.40
2019-03-24T05:44:40.847Z,2.27
2019-03-24T05:47:44.576Z,5.50
2019-03-24T05:50:48.735Z,2.40
2019-03-24T05:53:52.744Z,2.30
2019-03-24T05:56:56.820Z,3.57
2019-03-24T06:00:00.534Z,2.80
2019-03-24T06:03:05.102Z,2.43
2019-03-24T06:06:08.864Z,3.10
2019-03-24T06:09:12.572Z,2.53
2019-03-24T06:12:16.820Z,2.33
2019-03-24T06:15:20.894Z,2.57
2019-03-24T06:18:24.612Z,2.40
2019-03-24T06:21:28.719Z,1.80
2019-03-24T06:24:32.831Z,3.70
2019-03-24T06:27:36.927Z,2.63
2019-03-24T06:30:40.660Z,3.10
2019-03-24T06:33:44.744Z,3.50
2019-03-24T06:36:48.804Z,2.70
2019-03-24T06:39:52.882Z,2.53
2019-03-24T06:42:56.984Z,4.03
2019-03-24T06:46:01.921Z,3.07
2019-03-24T06:49:05.633Z,3.33
2019-03-24T06:52:09.472Z,2.50
2019-03-24T06:55:14.280Z,3.00
2019-03-24T06:58:18.382Z,2.83
2019-03-24T07:01:22.099Z,3.10
2019-03-24T07:04:26.679Z,3.00
2019-03-24T07:07:30.833Z,2.83
2019-03-24T07:10:34.568Z,3.77
2019-03-24T07:13:38.280Z,2.63
2019-03-24T07:16:42.317Z,3.73
2019-03-24T07:19:46.026Z,3.70
2019-03-24T07:22:50.550Z,3.80
2019-03-24T07:25:55.067Z,4.87
2019-03-24T07:29:00.766Z,2.83
2019-03-24T07:32:04.938Z,4.17
2019-03-24T07:35:08.913Z,3.03
2019-03-24T07:38:13.067Z,2.73
2019-03-24T07:41:16.808Z,4.60
2019-03-24T07:44:21.340Z,3.40
2019-03-24T07:47:25.090Z,3.07
2019-03-24T07:50:28.815Z,3.90
2019-03-24T07:53:33.440Z,3.00
2019-03-24T07:56:37.486Z,4.20
2019-03-24T07:59:41.559Z,3.73
2019-03-24T08:02:51.628Z,4.00
2019-03-24T08:05:55.359Z,5.83
2019-03-24T08:08:59.864Z,3.73
2019-03-24T08:12:04.847Z,4.30
2019-03-24T08:15:08.750Z,2.80
2019-03-24T08:18:12.991Z,3.97
2019-03-24T08:21:17.816Z,4.70
2019-03-24T08:24:21.917Z,3.67
2019-03-24T08:27:26.365Z,4.10
2019-03-24T08:30:37.713Z,4.23
2019-03-24T08:33:41.826Z,4.10
2019-03-24T08:36:46.694Z,4.50
2019-03-24T08:39:50.388Z,3.97
2019-03-24T08:42:54.700Z,3.93
2019-03-24T08:45:59.198Z,4.70
2019-03-24T08:49:02.899Z,4.30
2019-03-24T08:52:07.016Z,4.67
2019-03-24T08:55:11.118Z,4.87
2019-03-24T08:58:15.191Z,4.93
2019-03-24T09:01:18.922Z,4.50
2019-03-24T09:04:22.639Z,4.90
2019-03-24T09:07:26.412Z,3.83
2019-03-24T09:10:30.114Z,4.50
2019-03-24T09:13:33.842Z,4.47
2019-03-24T09:16:38.035Z,4.30
2019-03-24T09:19:42.220Z,5.33
2019-03-24T09:22:46.679Z,5.30
2019-03-24T09:25:50.391Z,5.57
2019-03-24T09:28:54.122Z,4.90
2019-03-24T09:31:58.608Z,4.00
2019-03-24T09:35:03.011Z,4.73
2019-03-24T09:38:07.277Z,4.67
2019-03-24T09:41:11.009Z,5.07
2019-03-24T09:44:14.970Z,4.97
2019-03-24T09:47:18.712Z,4.40
2019-03-24T09:50:22.426Z,5.60
2019-03-24T09:53:26.730Z,4.40
2019-03-24T09:56:30.459Z,4.77
2019-03-24T09:59:34.436Z,5.40
2019-03-24T10:02:39.103Z,7.03
2019-03-24T10:05:42.805Z,6.30
2019-03-24T10:08:47.472Z,7.30
2019-03-24T10:11:53.741Z,7.87
2019-03-24T10:14:57.452Z,7.90
2019-03-24T10:18:01.483Z,8.47
2019-03-24T10:21:05.180Z,7.83
2019-03-24T10:24:09.608Z,7.57
2019-03-24T10:27:14.112Z,7.07
2019-03-24T10:30:17.815Z,8.57
2019-03-24T10:33:23.155Z,6.80
2019-03-24T10:36:26.902Z,7.43
2019-03-24T10:39:31.972Z,7.70
2019-03-24T10:42:36.508Z,4.87
2019-03-24T10:45:40.580Z,5.87
2019-03-24T10:48:44.319Z,5.90
2019-03-24T10:51:48.998Z,3.90
2019-03-24T10:54:53.035Z,3.83
2019-03-24T10:57:56.759Z,3.67
2019-03-24T11:01:00.877Z,3.80
2019-03-24T11:04:06.353Z,2.57
2019-03-24T11:07:10.099Z,3.53
2019-03-24T11:10:14.224Z,4.30
2019-03-24T11:13:18.731Z,5.83
2019-03-24T11:16:22.460Z,4.40
2019-03-24T11:19:35.304Z,4.80
2019-03-24T11:22:32.667Z,4.70
2019-03-24T11:25:37.811Z,3.40
2019-03-24T11:28:41.539Z,3.83
2019-03-24T11:31:45.259Z,4.93
2019-03-24T11:34:48.957Z,3.90
2019-03-24T11:37:52.956Z,3.93
2019-03-24T11:40:56.730Z,3.37
2019-03-24T11:44:00.486Z,4.37
2019-03-24T11:47:04.222Z,3.63
2019-03-24T11:50:10.687Z,4.87
2019-03-24T11:53:14.791Z,4.07
2019-03-24T11:56:18.528Z,3.37
2019-03-24T11:59:22.604Z,3.60
2019-03-24T12:02:28.242Z,4.20
2019-03-24T12:05:31.989Z,3.10
2019-03-24T12:08:35.741Z,4.50
2019-03-24T12:11:39.476Z,3.40
2019-03-24T12:14:43.892Z,3.43
2019-03-24T12:17:48.070Z,2.70
2019-03-24T12:20:51.784Z,2.23
2019-03-24T12:23:56.478Z,2.07
2019-03-24T12:27:01.378Z,3.13
2019-03-24T12:30:06.644Z,2.70
2019-03-24T12:33:10.731Z,2.10
2019-03-24T12:36:14.892Z,3.60
2019-03-24T12:39:19.007Z,3.20
2019-03-24T12:42:24.698Z,2.70
2019-03-24T12:45:28.730Z,3.10
2019-03-24T12:48:32.471Z,2.50
2019-03-24T12:51:36.209Z,3.03
2019-03-24T12:54:40.594Z,3.07
2019-03-24T12:57:44.788Z,4.40
2019-03-24T13:00:48.506Z,2.80
2019-03-24T13:03:53.113Z,2.40
2019-03-24T13:06:57.257Z,2.47
2019-03-24T13:10:02.118Z,1.97
2019-03-24T13:13:07.296Z,2.13
2019-03-24T13:16:11.018Z,2.70
2019-03-24T13:19:15.102Z,4.13
2019-03-24T13:22:19.132Z,3.43
2019-03-24T13:25:22.876Z,1.53
2019-03-24T13:28:27.370Z,1.47
2019-03-24T13:31:31.468Z,1.50
2019-03-24T13:34:35.984Z,2.00
2019-03-24T13:37:40.432Z,1.63
2019-03-24T13:40:44.995Z,1.60
2019-03-24T13:43:48.754Z,1.30
2019-03-24T13:46:52.469Z,1.30
2019-03-24T13:49:56.233Z,1.70
2019-03-24T13:52:59.981Z,2.20
2019-03-24T13:56:04.470Z,1.20
2019-03-24T13:59:08.205Z,1.20
2019-03-24T14:02:12.470Z,1.60
2019-03-24T14:05:16.273Z,2.40
2019-03-24T14:08:21.052Z,1.50
2019-03-24T14:11:25.168Z,2.10
2019-03-24T14:14:28.902Z,1.80
2019-03-24T14:17:33.020Z,1.90
2019-03-24T14:20:43.220Z,1.57
2019-03-24T14:23:44.059Z,1.27
2019-03-24T14:26:48.107Z,1.80
2019-03-24T14:29:51.892Z,1.50
2019-03-24T14:32:56.706Z,1.70
2019-03-24T14:36:01.168Z,1.30
2019-03-24T14:39:06.226Z,1.53
2019-03-24T14:42:09.959Z,2.50
2019-03-24T14:45:15.116Z,1.33
2019-03-24T14:48:19.241Z,1.53
2019-03-24T14:51:22.965Z,1.93
2019-03-24T14:54:26.700Z,1.33
2019-03-24T14:57:30.427Z,1.20
2019-03-24T15:00:36.973Z,1.53
2019-03-24T15:03:40.711Z,0.93
2019-03-24T15:06:44.441Z,1.63
2019-03-24T15:09:48.218Z,1.53
2019-03-24T15:12:51.953Z,1.30
2019-03-24T15:15:55.711Z,1.50
2019-03-24T15:18:59.881Z,1.20
2019-03-24T15:22:03.615Z,1.23
2019-03-24T15:25:07.934Z,1.40
2019-03-24T15:28:11.653Z,1.13
2019-03-24T15:31:15.398Z,1.27
2019-03-24T15:34:19.503Z,1.20
2019-03-24T15:37:25.209Z,2.30
2019-03-24T15:40:29.735Z,1.00
2019-03-24T15:43:33.478Z,1.60
2019-03-24T15:46:37.224Z,1.13
2019-03-24T15:49:41.988Z,1.40
2019-03-24T15:52:45.729Z,1.97
2019-03-24T15:55:49.793Z,1.90
2019-03-24T15:58:53.932Z,1.50
2019-03-24T16:01:58.876Z,2.00
2019-03-24T16:05:02.836Z,2.30
2019-03-24T16:08:06.590Z,2.40
2019-03-24T16:11:10.320Z,2.13
2019-03-24T16:14:15.402Z,2.27
2019-03-24T16:17:19.159Z,1.60
2019-03-24T16:25:24.066Z,1.77
2019-03-24T16:28:28.240Z,1.87
2019-03-24T16:31:32.616Z,1.30
2019-03-24T16:34:37.464Z,2.20
2019-03-24T16:37:41.566Z,1.00
2019-03-24T16:40:45.679Z,1.73
2019-03-24T16:43:50.240Z,1.50
2019-03-24T16:46:54.372Z,1.10
2019-03-24T16:49:58.602Z,1.40
2019-03-24T16:53:03.147Z,1.43
2019-03-24T16:56:06.889Z,1.37
2019-03-24T16:59:11.052Z,2.20
2019-03-24T17:02:14.899Z,1.07
2019-03-24T17:05:18.653Z,1.60
2019-03-24T17:08:22.396Z,1.80
2019-03-24T17:11:26.571Z,1.90
2019-03-24T17:14:30.637Z,1.37
2019-03-24T17:17:34.355Z,1.00
2019-03-24T17:20:38.089Z,1.30
2019-03-24T17:23:41.799Z,1.23
2019-03-24T17:26:45.928Z,1.00
2019-03-24T17:29:49.675Z,2.40
2019-03-24T17:32:53.398Z,1.90
2019-03-24T17:35:57.672Z,1.60
2019-03-24T17:39:01.868Z,1.50
2019-03-24T17:42:08.164Z,6.80
2019-03-24T17:45:12.814Z,4.03
2019-03-24T17:48:17.841Z,3.20
2019-03-24T17:51:23.804Z,3.50
2019-03-24T17:54:28.732Z,2.20
2019-03-24T17:57:32.876Z,2.47
2019-03-24T18:00:44.883Z,1.73
2019-03-24T18:03:49.056Z,2.30
2019-03-24T18:06:53.227Z,1.37
2019-03-24T18:09:58.162Z,0.97
2019-03-24T18:13:03.073Z,3.00
2019-03-24T18:16:07.924Z,1.40
2019-03-24T18:19:11.644Z,1.30
2019-03-24T18:22:15.789Z,1.10
2019-03-24T18:25:20.712Z,1.40
2019-03-24T18:28:24.783Z,1.20
2019-03-24T18:31:28.510Z,1.73
2019-03-24T18:34:32.262Z,1.83
2019-03-24T18:37:36.538Z,1.50
2019-03-24T18:40:40.741Z,1.13
2019-03-24T18:43:44.860Z,1.37
2019-03-24T18:46:49.131Z,1.30
2019-03-24T18:49:53.834Z,1.60
2019-03-24T18:52:58.170Z,1.13
2019-03-24T18:56:01.927Z,1.97
2019-03-24T18:59:05.874Z,2.10
2019-03-24T19:02:10.711Z,1.10
2019-03-24T19:05:15.904Z,1.57
2019-03-24T19:08:20.054Z,1.57
2019-03-24T19:11:23.837Z,1.57
2019-03-24T19:14:28.336Z,1.70
2019-03-24T19:17:32.107Z,1.73
2019-03-24T19:20:35.875Z,2.20
2019-03-24T19:23:39.976Z,2.13
2019-03-24T19:26:43.745Z,2.37
2019-03-24T19:29:48.500Z,1.70
2019-03-24T19:32:52.238Z,1.80
2019-03-24T19:35:56.070Z,2.27
2019-03-24T19:39:00.004Z,1.80
2019-03-24T19:42:03.795Z,1.80
2019-03-24T19:45:08.116Z,1.93
2019-03-24T19:48:12.238Z,1.60
2019-03-24T19:51:16.280Z,2.10
2019-03-24T19:54:20.372Z,2.00
2019-03-24T19:57:24.274Z,3.93
2019-03-24T20:00:28.132Z,1.57
2019-03-24T20:03:31.871Z,1.27
2019-03-24T20:06:35.713Z,1.30
2019-03-24T20:09:39.522Z,1.77
2019-03-24T20:12:43.369Z,1.90
2019-03-24T20:15:47.215Z,1.70
2019-03-24T20:18:51.055Z,2.07
2019-03-24T20:21:55.207Z,2.30
2019-03-24T20:24:59.046Z,1.93
2019-03-24T20:28:03.411Z,3.07
2019-03-24T20:31:07.989Z,2.30
2019-03-24T20:34:12.157Z,2.80
2019-03-24T20:37:16.735Z,1.67
2019-03-24T20:40:20.631Z,2.20
2019-03-24T20:43:24.934Z,2.50
2019-03-24T20:46:29.639Z,2.63
2019-03-24T20:49:33.360Z,2.20
2019-03-24T20:52:37.561Z,1.70
2019-03-24T20:55:42.393Z,10.03
2019-03-24T20:58:46.275Z,3.10
2019-03-24T21:01:50.812Z,2.00
2019-03-24T21:04:55.034Z,2.63
2019-03-24T21:07:59.834Z,2.10
2019-03-24T21:11:03.604Z,1.77
2019-03-24T21:14:07.975Z,1.63
2019-03-24T21:17:12.249Z,2.93
2019-03-24T21:20:16.886Z,2.10
2019-03-24T21:23:29.146Z,2.40
2019-03-24T21:26:27.698Z,2.13
2019-03-24T21:29:32.093Z,2.90
2019-03-24T21:32:36.212Z,2.97
2019-03-24T21:35:40.369Z,2.53
2019-03-24T21:38:44.103Z,2.40
2019-03-24T21:41:47.881Z,3.80
2019-03-24T21:44:51.611Z,3.40
2019-03-24T21:47:56.407Z,2.33
2019-03-24T21:51:00.165Z,3.93
2019-03-24T21:54:03.999Z,3.40
2019-03-24T21:57:08.656Z,2.33
2019-03-24T22:00:12.786Z,2.90
2019-03-24T22:03:17.082Z,2.00
2019-03-24T22:06:20.817Z,2.60
2019-03-24T22:09:24.983Z,2.80
2019-03-24T22:12:28.774Z,2.10
2019-03-24T22:15:32.623Z,2.77
2019-03-24T22:18:36.371Z,2.30
2019-03-24T22:21:40.128Z,3.10
2019-03-24T22:24:44.289Z,2.73
2019-03-24T22:27:48.889Z,2.43
2019-03-24T22:30:53.526Z,2.17
2019-03-24T22:33:57.246Z,2.07
2019-03-24T22:37:01.101Z,2.50
2019-03-24T22:40:06.422Z,2.90
2019-03-24T22:43:11.044Z,2.87
2019-03-24T22:46:15.955Z,3.57
2019-03-24T22:49:20.466Z,2.70
2019-03-24T22:52:24.608Z,2.60
2019-03-24T22:55:28.329Z,2.60
2019-03-24T22:58:32.414Z,2.10
2019-03-24T23:01:36.277Z,2.20
2019-03-24T23:04:40.007Z,1.80
2019-03-24T23:07:43.774Z,2.40
2019-03-24T23:10:47.842Z,2.13
2019-03-24T23:13:51.698Z,1.50
2019-03-24T23:16:55.530Z,1.30
2019-03-24T23:19:59.563Z,2.03
2019-03-24T23:23:03.406Z,2.90
2019-03-24T23:26:07.149Z,1.90
2019-03-24T23:29:10.866Z,2.23
2019-03-24T23:32:14.635Z,2.40
2019-03-24T23:35:18.351Z,2.10
2019-03-24T23:38:22.187Z,1.83
2019-03-24T23:41:26.317Z,3.30
2019-03-24T23:44:30.323Z,1.87
2019-03-24T23:47:34.095Z,2.40
2019-03-24T23:50:37.902Z,2.70
2019-03-24T23:53:42.038Z,2.80
2019-03-24T23:56:45.816Z,2.07
2019-03-24T23:59:49.526Z,2.93
